sensor_id;sensor_type;location;lat;lon;timestamp;pressure;altitude;pressure_sealevel;temperature;humidity
28312;BME280;15572;48.810;9.148;2023-12-20T00:00:45;98136.75;;;6.12;100.00
28312;BME280;15572;48.810;9.148;2023-12-20T00:05:41;98120.63;;;6.12;100.00
28312;BME280;15572;48.810;9.148;2023-12-20T00:10:37;98124.00;;;6.14;100.00
28312;BME280;15572;48.810;9.148;2023-12-20T00:15:35;98122.94;;;6.15;100.00
28312;BME280;15572;48.810;9.148;2023-12-20T00:20:32;98118.94;;;6.11;100.00
28312;BME280;15572;48.810;9.148;2023-12-20T00:25:28;98113.91;;;6.08;100.00
28312;BME280;15572;48.810;9.148;2023-12-20T00:30:24;98106.69;;;6.00;100.00
28312;BME280;15572;48.810;9.148;2023-12-20T00:35:22;98108.38;;;5.93;100.00
28312;BME280;15572;48.810;9.148;2023-12-20T00:40:19;98105.34;;;5.88;100.00
28312;BME280;15572;48.810;9.148;2023-12-20T00:45:15;98103.81;;;5.77;100.00
28312;BME280;15572;48.810;9.148;2023-12-20T00:50:12;98111.72;;;5.71;100.00
28312;BME280;15572;48.810;9.148;2023-12-20T00:55:10;98104.50;;;5.63;100.00
28312;BME280;15572;48.810;9.148;2023-12-20T01:00:07;98104.84;;;5.60;100.00
28312;BME280;15572;48.810;9.148;2023-12-20T01:05:05;98111.88;;;5.61;100.00
28312;BME280;15572;48.810;9.148;2023-12-20T01:10:02;98107.69;;;5.59;100.00
28312;BME280;15572;48.810;9.148;2023-12-20T01:15:00;98114.56;;;5.53;100.00
28312;BME280;15572;48.810;9.148;2023-12-20T01:19:57;98115.72;;;5.42;100.00
28312;BME280;15572;48.810;9.148;2023-12-20T01:24:53;98120.75;;;5.37;100.00
28312;BME280;15572;48.810;9.148;2023-12-20T01:29:49;98126.63;;;5.33;100.00
28312;BME280;15572;48.810;9.148;2023-12-20T01:34:47;98127.97;;;5.29;100.00
28312;BME280;15572;48.810;9.148;2023-12-20T01:39:43;98124.75;;;5.25;100.00
28312;BME280;15572;48.810;9.148;2023-12-20T01:44:40;98126.25;;;5.20;100.00
28312;BME280;15572;48.810;9.148;2023-12-20T01:49:36;98128.44;;;5.16;100.00
28312;BME280;15572;48.810;9.148;2023-12-20T01:54:35;98123.06;;;5.16;100.00
28312;BME280;15572;48.810;9.148;2023-12-20T01:59:32;98116.16;;;5.14;100.00
28312;BME280;15572;48.810;9.148;2023-12-20T02:04:29;98116.50;;;5.11;100.00
28312;BME280;15572;48.810;9.148;2023-12-20T02:09:26;98113.13;;;5.08;100.00
28312;BME280;15572;48.810;9.148;2023-12-20T02:14:25;98120.69;;;5.05;100.00
28312;BME280;15572;48.810;9.148;2023-12-20T02:19:21;98121.84;;;5.02;100.00
28312;BME280;15572;48.810;9.148;2023-12-20T02:24:19;98123.03;;;5.00;100.00
28312;BME280;15572;48.810;9.148;2023-12-20T02:29:15;98124.03;;;4.99;100.00
28312;BME280;15572;48.810;9.148;2023-12-20T02:34:12;98121.69;;;4.96;100.00
28312;BME280;15572;48.810;9.148;2023-12-20T02:39:08;98120.28;;;4.92;100.00
28312;BME280;15572;48.810;9.148;2023-12-20T02:44:06;98130.38;;;4.90;100.00
28312;BME280;15572;48.810;9.148;2023-12-20T02:49:02;98128.84;;;4.87;100.00
28312;BME280;15572;48.810;9.148;2023-12-20T02:53:58;98122.47;;;4.88;100.00
28312;BME280;15572;48.810;9.148;2023-12-20T02:58:55;98125.16;;;4.88;100.00
28312;BME280;15572;48.810;9.148;2023-12-20T03:03:53;98131.22;;;4.98;100.00
28312;BME280;15572;48.810;9.148;2023-12-20T03:08:49;98134.44;;;5.10;100.00
28312;BME280;15572;48.810;9.148;2023-12-20T03:13:45;98127.59;;;5.16;100.00
28312;BME280;15572;48.810;9.148;2023-12-20T03:18:42;98140.66;;;5.19;100.00
28312;BME280;15572;48.810;9.148;2023-12-20T03:23:40;98143.03;;;5.22;100.00
28312;BME280;15572;48.810;9.148;2023-12-20T03:28:36;98140.50;;;5.20;100.00
28312;BME280;15572;48.810;9.148;2023-12-20T03:33:33;98133.47;;;5.19;100.00
28312;BME280;15572;48.810;9.148;2023-12-20T03:38:29;98139.16;;;5.16;100.00
28312;BME280;15572;48.810;9.148;2023-12-20T03:43:27;98148.22;;;5.15;100.00
28312;BME280;15572;48.810;9.148;2023-12-20T03:48:23;98153.09;;;5.12;100.00
28312;BME280;15572;48.810;9.148;2023-12-20T03:53:20;98155.91;;;5.10;100.00
28312;BME280;15572;48.810;9.148;2023-12-20T03:58:16;98155.06;;;5.09;100.00
28312;BME280;15572;48.810;9.148;2023-12-20T04:03:14;98154.72;;;5.04;100.00
28312;BME280;15572;48.810;9.148;2023-12-20T04:08:11;98158.06;;;4.98;100.00
28312;BME280;15572;48.810;9.148;2023-12-20T04:13:07;98156.84;;;4.93;100.00
28312;BME280;15572;48.810;9.148;2023-12-20T04:18:04;98143.25;;;4.86;100.00
28312;BME280;15572;48.810;9.148;2023-12-20T04:23:02;98162.72;;;4.88;100.00
28312;BME280;15572;48.810;9.148;2023-12-20T04:27:58;98178.13;;;4.86;100.00
28312;BME280;15572;48.810;9.148;2023-12-20T04:32:54;98173.09;;;4.83;100.00
28312;BME280;15572;48.810;9.148;2023-12-20T04:37:52;98166.03;;;4.82;100.00
28312;BME280;15572;48.810;9.148;2023-12-20T04:42:49;98191.88;;;4.83;100.00
28312;BME280;15572;48.810;9.148;2023-12-20T04:47:46;98196.53;;;4.81;100.00
28312;BME280;15572;48.810;9.148;2023-12-20T04:52:43;98195.38;;;4.84;100.00
28312;BME280;15572;48.810;9.148;2023-12-20T04:57:39;98198.22;;;4.82;100.00
28312;BME280;15572;48.810;9.148;2023-12-20T05:02:37;98199.56;;;4.78;100.00
28312;BME280;15572;48.810;9.148;2023-12-20T05:07:34;98199.41;;;4.80;100.00
28312;BME280;15572;48.810;9.148;2023-12-20T05:12:30;98216.34;;;4.80;100.00
28312;BME280;15572;48.810;9.148;2023-12-20T05:17:26;98208.28;;;4.80;100.00
28312;BME280;15572;48.810;9.148;2023-12-20T05:22:24;98226.88;;;4.82;100.00
28312;BME280;15572;48.810;9.148;2023-12-20T05:27:22;98214.16;;;4.84;100.00
28312;BME280;15572;48.810;9.148;2023-12-20T05:32:19;98217.19;;;4.81;100.00
28312;BME280;15572;48.810;9.148;2023-12-20T05:37:15;98228.06;;;4.79;100.00
28312;BME280;15572;48.810;9.148;2023-12-20T05:42:13;98241.63;;;4.78;100.00
28312;BME280;15572;48.810;9.148;2023-12-20T05:47:09;98242.31;;;4.80;100.00
28312;BME280;15572;48.810;9.148;2023-12-20T05:52:05;98253.53;;;4.75;100.00
28312;BME280;15572;48.810;9.148;2023-12-20T05:57:02;98261.72;;;4.74;100.00
28312;BME280;15572;48.810;9.148;2023-12-20T06:02:00;98260.88;;;4.73;100.00
28312;BME280;15572;48.810;9.148;2023-12-20T06:06:56;98274.28;;;4.73;100.00
28312;BME280;15572;48.810;9.148;2023-12-20T06:11:53;98279.50;;;4.75;100.00
28312;BME280;15572;48.810;9.148;2023-12-20T06:16:50;98278.47;;;4.76;100.00
28312;BME280;15572;48.810;9.148;2023-12-20T06:21:47;98283.69;;;4.77;100.00
28312;BME280;15572;48.810;9.148;2023-12-20T06:26:44;98279.31;;;4.76;100.00
28312;BME280;15572;48.810;9.148;2023-12-20T06:31:40;98275.00;;;4.75;100.00
28312;BME280;15572;48.810;9.148;2023-12-20T06:36:37;98272.97;;;4.77;100.00
28312;BME280;15572;48.810;9.148;2023-12-20T06:41:34;98285.06;;;4.81;100.00
28312;BME280;15572;48.810;9.148;2023-12-20T06:46:31;98293.94;;;4.82;100.00
28312;BME280;15572;48.810;9.148;2023-12-20T06:51:28;98295.50;;;4.84;100.00
28312;BME280;15572;48.810;9.148;2023-12-20T06:56:26;98300.03;;;4.92;100.00
28312;BME280;15572;48.810;9.148;2023-12-20T07:01:23;98310.63;;;4.93;100.00
28312;BME280;15572;48.810;9.148;2023-12-20T07:06:20;98319.59;;;5.02;100.00
28312;BME280;15572;48.810;9.148;2023-12-20T07:11:16;98316.59;;;5.13;100.00
28312;BME280;15572;48.810;9.148;2023-12-20T07:16:13;98331.78;;;5.22;100.00
28312;BME280;15572;48.810;9.148;2023-12-20T07:21:11;98337.34;;;5.29;100.00
28312;BME280;15572;48.810;9.148;2023-12-20T07:26:07;98352.06;;;5.25;100.00
28312;BME280;15572;48.810;9.148;2023-12-20T07:31:03;98351.41;;;5.23;100.00
28312;BME280;15572;48.810;9.148;2023-12-20T07:36:00;98359.25;;;5.16;100.00
28312;BME280;15572;48.810;9.148;2023-12-20T07:40:57;98364.63;;;5.16;100.00
28312;BME280;15572;48.810;9.148;2023-12-20T07:45:54;98359.41;;;5.15;100.00
28312;BME280;15572;48.810;9.148;2023-12-20T07:50:50;98362.72;;;5.08;100.00
28312;BME280;15572;48.810;9.148;2023-12-20T07:55:48;98363.63;;;4.91;100.00
28312;BME280;15572;48.810;9.148;2023-12-20T08:00:46;98361.56;;;4.85;100.00
28312;BME280;15572;48.810;9.148;2023-12-20T08:05:42;98374.66;;;4.71;100.00
28312;BME280;15572;48.810;9.148;2023-12-20T08:10:38;98375.84;;;4.68;100.00
28312;BME280;15572;48.810;9.148;2023-12-20T08:15:35;98396.22;;;4.61;100.00
28312;BME280;15572;48.810;9.148;2023-12-20T08:20:34;98397.91;;;4.62;100.00
28312;BME280;15572;48.810;9.148;2023-12-20T08:25:32;98401.44;;;4.62;100.00
28312;BME280;15572;48.810;9.148;2023-12-20T08:30:28;98408.88;;;4.69;100.00
28312;BME280;15572;48.810;9.148;2023-12-20T08:35:26;98403.59;;;4.59;100.00
28312;BME280;15572;48.810;9.148;2023-12-20T08:40:23;98417.63;;;4.53;100.00
28312;BME280;15572;48.810;9.148;2023-12-20T08:45:20;98419.13;;;4.55;100.00
28312;BME280;15572;48.810;9.148;2023-12-20T08:50:16;98425.94;;;4.50;100.00
28312;BME280;15572;48.810;9.148;2023-12-20T08:55:13;98431.16;;;4.51;100.00
28312;BME280;15572;48.810;9.148;2023-12-20T09:00:14;98427.88;;;4.57;100.00
28312;BME280;15572;48.810;9.148;2023-12-20T09:05:10;98411.16;;;4.63;100.00
28312;BME280;15572;48.810;9.148;2023-12-20T09:10:07;98403.50;;;4.69;100.00
28312;BME280;15572;48.810;9.148;2023-12-20T09:15:04;98423.50;;;4.74;100.00
28312;BME280;15572;48.810;9.148;2023-12-20T09:20:03;98419.50;;;4.78;100.00
28312;BME280;15572;48.810;9.148;2023-12-20T09:25:02;98419.88;;;4.83;100.00
28312;BME280;15572;48.810;9.148;2023-12-20T09:29:59;98417.28;;;4.91;100.00
28312;BME280;15572;48.810;9.148;2023-12-20T09:34:55;98431.22;;;4.95;100.00
28312;BME280;15572;48.810;9.148;2023-12-20T09:39:53;98433.34;;;5.09;100.00
28312;BME280;15572;48.810;9.148;2023-12-20T09:44:50;98439.63;;;5.18;100.00
28312;BME280;15572;48.810;9.148;2023-12-20T09:49:47;98433.59;;;5.24;100.00
28312;BME280;15572;48.810;9.148;2023-12-20T09:54:43;98453.16;;;5.34;100.00
28312;BME280;15572;48.810;9.148;2023-12-20T09:59:43;98451.72;;;5.47;100.00
28312;BME280;15572;48.810;9.148;2023-12-20T10:04:41;98436.69;;;5.55;100.00
28312;BME280;15572;48.810;9.148;2023-12-20T10:09:42;98455.09;;;5.75;100.00
28312;BME280;15572;48.810;9.148;2023-12-20T10:14:39;98459.22;;;5.87;100.00
28312;BME280;15572;48.810;9.148;2023-12-20T10:19:37;98446.53;;;5.80;96.09
28312;BME280;15572;48.810;9.148;2023-12-20T10:24:33;98442.31;;;5.77;97.27
28312;BME280;15572;48.810;9.148;2023-12-20T10:29:32;98436.78;;;5.79;98.71
28312;BME280;15572;48.810;9.148;2023-12-20T10:34:32;98419.81;;;5.78;100.00
28312;BME280;15572;48.810;9.148;2023-12-20T10:39:29;98429.84;;;5.68;100.00
28312;BME280;15572;48.810;9.148;2023-12-20T10:44:27;98423.59;;;5.60;100.00
28312;BME280;15572;48.810;9.148;2023-12-20T10:49:24;98423.91;;;5.57;100.00
28312;BME280;15572;48.810;9.148;2023-12-20T10:54:22;98410.31;;;5.50;100.00
28312;BME280;15572;48.810;9.148;2023-12-20T10:59:20;98421.97;;;5.41;100.00
28312;BME280;15572;48.810;9.148;2023-12-20T11:04:20;98411.69;;;5.62;99.78
28312;BME280;15572;48.810;9.148;2023-12-20T11:09:23;98419.25;;;5.67;98.76
28312;BME280;15572;48.810;9.148;2023-12-20T11:14:27;98411.41;;;5.73;100.00
28312;BME280;15572;48.810;9.148;2023-12-20T11:19:25;98407.56;;;5.76;98.32
28312;BME280;15572;48.810;9.148;2023-12-20T11:24:22;98404.31;;;5.64;97.42
28312;BME280;15572;48.810;9.148;2023-12-20T11:29:38;98404.13;;;5.58;97.86
28312;BME280;15572;48.810;9.148;2023-12-20T11:34:35;98401.31;;;5.67;93.90
28312;BME280;15572;48.810;9.148;2023-12-20T11:39:32;98404.81;;;5.60;93.87
28312;BME280;15572;48.810;9.148;2023-12-20T11:44:30;98402.31;;;5.66;97.16
28312;BME280;15572;48.810;9.148;2023-12-20T11:49:29;98408.13;;;5.54;93.61
28312;BME280;15572;48.810;9.148;2023-12-20T11:54:25;98400.06;;;5.54;92.39
28312;BME280;15572;48.810;9.148;2023-12-20T11:59:22;98398.03;;;5.47;92.00
28312;BME280;15572;48.810;9.148;2023-12-20T12:04:19;98384.75;;;5.46;93.18
28312;BME280;15572;48.810;9.148;2023-12-20T12:09:17;98376.56;;;5.56;92.28
28312;BME280;15572;48.810;9.148;2023-12-20T12:14:13;98361.13;;;5.58;91.11
28312;BME280;15572;48.810;9.148;2023-12-20T12:19:20;98359.84;;;5.70;91.08
28312;BME280;15572;48.810;9.148;2023-12-20T12:24:20;98354.50;;;5.78;91.07
28312;BME280;15572;48.810;9.148;2023-12-20T12:29:17;98350.97;;;5.77;90.94
28312;BME280;15572;48.810;9.148;2023-12-20T12:34:13;98345.09;;;5.74;88.62
28312;BME280;15572;48.810;9.148;2023-12-20T12:39:12;98346.09;;;5.73;89.44
28312;BME280;15572;48.810;9.148;2023-12-20T12:44:11;98345.03;;;5.91;86.80
28312;BME280;15572;48.810;9.148;2023-12-20T12:49:07;98353.25;;;5.90;87.71
28312;BME280;15572;48.810;9.148;2023-12-20T12:54:04;98345.63;;;5.85;89.27
28312;BME280;15572;48.810;9.148;2023-12-20T12:59:01;98350.56;;;5.90;89.45
28312;BME280;15572;48.810;9.148;2023-12-20T13:03:59;98343.00;;;5.93;89.43
28312;BME280;15572;48.810;9.148;2023-12-20T13:08:56;98342.84;;;5.87;89.50
28312;BME280;15572;48.810;9.148;2023-12-20T13:13:53;98345.13;;;5.82;89.00
28312;BME280;15572;48.810;9.148;2023-12-20T13:18:49;98341.59;;;5.81;89.14
28312;BME280;15572;48.810;9.148;2023-12-20T13:23:47;98338.31;;;6.04;88.79
28312;BME280;15572;48.810;9.148;2023-12-20T13:28:43;98337.03;;;6.48;85.54
28312;BME280;15572;48.810;9.148;2023-12-20T13:33:40;98343.13;;;6.66;79.88
28312;BME280;15572;48.810;9.148;2023-12-20T13:38:36;98337.91;;;6.41;83.45
28312;BME280;15572;48.810;9.148;2023-12-20T13:43:35;98344.22;;;6.07;85.80
28312;BME280;15572;48.810;9.148;2023-12-20T13:48:31;98347.03;;;5.89;87.93
28312;BME280;15572;48.810;9.148;2023-12-20T13:53:27;98366.78;;;5.80;91.29
28312;BME280;15572;48.810;9.148;2023-12-20T13:58:24;98361.91;;;5.76;91.08
28312;BME280;15572;48.810;9.148;2023-12-20T14:03:22;98343.06;;;5.68;92.59
28312;BME280;15572;48.810;9.148;2023-12-20T14:08:18;98342.38;;;5.66;94.00
28312;BME280;15572;48.810;9.148;2023-12-20T14:13:14;98320.69;;;5.59;94.53
28312;BME280;15572;48.810;9.148;2023-12-20T14:18:11;98327.41;;;5.55;96.57
28312;BME280;15572;48.810;9.148;2023-12-20T14:23:13;98315.81;;;5.55;97.82
28312;BME280;15572;48.810;9.148;2023-12-20T14:28:10;98313.94;;;5.47;99.98
28312;BME280;15572;48.810;9.148;2023-12-20T14:33:09;98314.91;;;5.38;100.00
28312;BME280;15572;48.810;9.148;2023-12-20T14:38:05;98303.13;;;5.31;100.00
28312;BME280;15572;48.810;9.148;2023-12-20T14:43:03;98307.44;;;5.24;100.00
28312;BME280;15572;48.810;9.148;2023-12-20T14:48:00;98322.03;;;5.21;100.00
28312;BME280;15572;48.810;9.148;2023-12-20T14:52:56;98317.31;;;5.15;100.00
28312;BME280;15572;48.810;9.148;2023-12-20T14:57:52;98319.13;;;5.15;100.00
28312;BME280;15572;48.810;9.148;2023-12-20T15:02:50;98314.94;;;5.12;100.00
28312;BME280;15572;48.810;9.148;2023-12-20T15:07:47;98325.84;;;5.11;100.00
28312;BME280;15572;48.810;9.148;2023-12-20T15:12:44;98324.47;;;5.06;100.00
28312;BME280;15572;48.810;9.148;2023-12-20T15:17:41;98326.97;;;5.08;100.00
28312;BME280;15572;48.810;9.148;2023-12-20T15:22:39;98317.09;;;5.08;100.00
28312;BME280;15572;48.810;9.148;2023-12-20T15:27:36;98310.44;;;5.13;100.00
28312;BME280;15572;48.810;9.148;2023-12-20T15:32:33;98315.94;;;5.11;100.00
28312;BME280;15572;48.810;9.148;2023-12-20T15:37:31;98303.03;;;5.15;100.00
28312;BME280;15572;48.810;9.148;2023-12-20T15:42:29;98312.78;;;5.16;100.00
28312;BME280;15572;48.810;9.148;2023-12-20T15:47:27;98312.78;;;5.16;100.00
28312;BME280;15572;48.810;9.148;2023-12-20T15:52:23;98322.81;;;5.14;100.00
28312;BME280;15572;48.810;9.148;2023-12-20T15:57:20;98318.75;;;5.01;100.00
28312;BME280;15572;48.810;9.148;2023-12-20T16:02:18;98321.34;;;4.93;100.00
28312;BME280;15572;48.810;9.148;2023-12-20T16:07:14;98330.41;;;4.92;100.00
28312;BME280;15572;48.810;9.148;2023-12-20T16:12:10;98328.75;;;4.91;100.00
28312;BME280;15572;48.810;9.148;2023-12-20T16:17:07;98337.59;;;4.92;100.00
28312;BME280;15572;48.810;9.148;2023-12-20T16:22:04;98311.94;;;4.89;100.00
28312;BME280;15572;48.810;9.148;2023-12-20T16:27:01;98313.94;;;4.87;100.00
28312;BME280;15572;48.810;9.148;2023-12-20T16:31:58;98304.53;;;4.83;100.00
28312;BME280;15572;48.810;9.148;2023-12-20T16:36:55;98300.63;;;4.78;100.00
28312;BME280;15572;48.810;9.148;2023-12-20T16:41:54;98295.75;;;4.73;100.00
28312;BME280;15572;48.810;9.148;2023-12-20T16:46:50;98298.56;;;4.72;100.00
28312;BME280;15572;48.810;9.148;2023-12-20T16:51:47;98274.91;;;4.67;100.00
28312;BME280;15572;48.810;9.148;2023-12-20T16:56:43;98280.91;;;4.61;100.00
28312;BME280;15572;48.810;9.148;2023-12-20T17:01:41;98297.16;;;4.59;100.00
28312;BME280;15572;48.810;9.148;2023-12-20T17:06:40;98288.72;;;4.54;100.00
28312;BME280;15572;48.810;9.148;2023-12-20T17:11:37;98272.50;;;4.56;100.00
28312;BME280;15572;48.810;9.148;2023-12-20T17:16:34;98274.31;;;4.55;100.00
28312;BME280;15572;48.810;9.148;2023-12-20T17:21:31;98283.22;;;4.56;100.00
28312;BME280;15572;48.810;9.148;2023-12-20T17:26:28;98281.53;;;4.55;100.00
28312;BME280;15572;48.810;9.148;2023-12-20T17:31:24;98287.91;;;4.54;100.00
28312;BME280;15572;48.810;9.148;2023-12-20T17:36:21;98287.06;;;4.53;100.00
28312;BME280;15572;48.810;9.148;2023-12-20T17:41:19;98288.72;;;4.54;100.00
28312;BME280;15572;48.810;9.148;2023-12-20T17:46:16;98277.94;;;4.64;100.00
28312;BME280;15572;48.810;9.148;2023-12-20T17:51:12;98280.13;;;4.69;100.00
28312;BME280;15572;48.810;9.148;2023-12-20T17:56:09;98267.56;;;4.69;100.00
28312;BME280;15572;48.810;9.148;2023-12-20T18:01:07;98270.75;;;4.73;100.00
28312;BME280;15572;48.810;9.148;2023-12-20T18:06:03;98274.81;;;4.77;100.00
28312;BME280;15572;48.810;9.148;2023-12-20T18:11:00;98261.25;;;4.78;100.00
28312;BME280;15572;48.810;9.148;2023-12-20T18:15:56;98267.81;;;4.84;100.00
28312;BME280;15572;48.810;9.148;2023-12-20T18:20:54;98266.34;;;4.89;100.00
28312;BME280;15572;48.810;9.148;2023-12-20T18:25:52;98279.59;;;4.91;100.00
28312;BME280;15572;48.810;9.148;2023-12-20T18:30:50;98273.91;;;4.94;100.00
28312;BME280;15572;48.810;9.148;2023-12-20T18:35:46;98269.38;;;4.94;100.00
28312;BME280;15572;48.810;9.148;2023-12-20T18:40:44;98270.22;;;4.95;100.00
28312;BME280;15572;48.810;9.148;2023-12-20T18:45:42;98260.66;;;4.92;100.00
28312;BME280;15572;48.810;9.148;2023-12-20T18:50:39;98260.84;;;4.91;100.00
28312;BME280;15572;48.810;9.148;2023-12-20T18:55:35;98253.94;;;4.88;100.00
28312;BME280;15572;48.810;9.148;2023-12-20T19:00:33;98250.94;;;4.91;100.00
28312;BME280;15572;48.810;9.148;2023-12-20T19:05:29;98253.63;;;4.91;100.00
28312;BME280;15572;48.810;9.148;2023-12-20T19:10:26;98248.56;;;4.88;100.00
28312;BME280;15572;48.810;9.148;2023-12-20T19:15:22;98253.63;;;4.91;100.00
28312;BME280;15572;48.810;9.148;2023-12-20T19:20:20;98241.22;;;4.90;100.00
28312;BME280;15572;48.810;9.148;2023-12-20T19:25:17;98234.44;;;4.86;100.00
28312;BME280;15572;48.810;9.148;2023-12-20T19:30:13;98231.41;;;4.81;100.00
28312;BME280;15572;48.810;9.148;2023-12-20T19:35:10;98223.38;;;4.81;100.00
28312;BME280;15572;48.810;9.148;2023-12-20T19:40:09;98225.38;;;4.79;100.00
28312;BME280;15572;48.810;9.148;2023-12-20T19:45:07;98220.16;;;4.78;100.00
28312;BME280;15572;48.810;9.148;2023-12-20T19:50:05;98216.44;;;4.71;100.00
28312;BME280;15572;48.810;9.148;2023-12-20T19:55:02;98212.03;;;4.61;100.00
28312;BME280;15572;48.810;9.148;2023-12-20T20:00:00;98212.19;;;4.60;100.00
28312;BME280;15572;48.810;9.148;2023-12-20T20:04:56;98197.13;;;4.59;100.00
28312;BME280;15572;48.810;9.148;2023-12-20T20:09:53;98187.38;;;4.58;100.00
28312;BME280;15572;48.810;9.148;2023-12-20T20:14:49;98186.03;;;4.54;100.00
28312;BME280;15572;48.810;9.148;2023-12-20T20:19:47;98185.47;;;4.50;100.00
28312;BME280;15572;48.810;9.148;2023-12-20T20:24:43;98190.84;;;4.50;100.00
28312;BME280;15572;48.810;9.148;2023-12-20T20:29:39;98173.25;;;4.48;100.00
28312;BME280;15572;48.810;9.148;2023-12-20T20:34:36;98169.09;;;4.53;100.00
28312;BME280;15572;48.810;9.148;2023-12-20T20:39:34;98166.41;;;4.53;100.00
28312;BME280;15572;48.810;9.148;2023-12-20T20:44:30;98175.97;;;4.56;100.00
28312;BME280;15572;48.810;9.148;2023-12-20T20:49:26;98176.66;;;4.58;100.00
28312;BME280;15572;48.810;9.148;2023-12-20T20:54:24;98176.47;;;4.59;100.00
28312;BME280;15572;48.810;9.148;2023-12-20T20:59:22;98174.19;;;4.64;100.00
28312;BME280;15572;48.810;9.148;2023-12-20T21:04:18;98168.63;;;4.66;100.00
28312;BME280;15572;48.810;9.148;2023-12-20T21:09:14;98173.69;;;4.69;100.00
28312;BME280;15572;48.810;9.148;2023-12-20T21:14:11;98156.59;;;4.70;100.00
28312;BME280;15572;48.810;9.148;2023-12-20T21:19:09;98140.50;;;4.70;100.00
28312;BME280;15572;48.810;9.148;2023-12-20T21:24:05;98133.63;;;4.68;100.00
28312;BME280;15572;48.810;9.148;2023-12-20T21:29:02;98124.59;;;4.69;100.00
28312;BME280;15572;48.810;9.148;2023-12-20T21:33:58;98139.84;;;4.68;100.00
28312;BME280;15572;48.810;9.148;2023-12-20T21:38:56;98133.63;;;4.68;100.00
28312;BME280;15572;48.810;9.148;2023-12-20T21:43:52;98104.13;;;4.68;100.00
28312;BME280;15572;48.810;9.148;2023-12-20T21:48:49;98098.91;;;4.66;100.00
28312;BME280;15572;48.810;9.148;2023-12-20T21:53:45;98082.81;;;4.66;100.00
28312;BME280;15572;48.810;9.148;2023-12-20T21:58:43;98074.78;;;4.66;100.00
28312;BME280;15572;48.810;9.148;2023-12-20T22:03:39;98063.22;;;4.65;100.00
28312;BME280;15572;48.810;9.148;2023-12-20T22:08:36;98052.69;;;4.72;100.00
28312;BME280;15572;48.810;9.148;2023-12-20T22:13:32;98068.47;;;4.83;100.00
28312;BME280;15572;48.810;9.148;2023-12-20T22:18:30;98056.94;;;4.91;100.00
28312;BME280;15572;48.810;9.148;2023-12-20T22:23:26;98063.31;;;4.90;100.00
28312;BME280;15572;48.810;9.148;2023-12-20T22:28:23;98049.34;;;4.86;100.00
28312;BME280;15572;48.810;9.148;2023-12-20T22:33:19;98046.84;;;4.85;100.00
28312;BME280;15572;48.810;9.148;2023-12-20T22:38:17;98060.28;;;4.85;100.00
28312;BME280;15572;48.810;9.148;2023-12-20T22:43:14;98048.34;;;4.87;100.00
28312;BME280;15572;48.810;9.148;2023-12-20T22:48:10;98041.84;;;4.90;100.00
28312;BME280;15572;48.810;9.148;2023-12-20T22:53:06;98040.16;;;4.89;100.00
28312;BME280;15572;48.810;9.148;2023-12-20T22:58:04;98020.03;;;4.93;100.00
28312;BME280;15572;48.810;9.148;2023-12-20T23:03:01;98011.47;;;4.97;100.00
28312;BME280;15572;48.810;9.148;2023-12-20T23:07:57;97999.91;;;4.97;100.00
28312;BME280;15572;48.810;9.148;2023-12-20T23:12:54;97996.56;;;5.03;100.00
28312;BME280;15572;48.810;9.148;2023-12-20T23:17:51;97990.88;;;5.06;100.00
28312;BME280;15572;48.810;9.148;2023-12-20T23:22:48;97986.34;;;5.06;100.00
28312;BME280;15572;48.810;9.148;2023-12-20T23:27:44;97977.97;;;5.09;100.00
28312;BME280;15572;48.810;9.148;2023-12-20T23:32:41;97968.56;;;5.14;100.00
28312;BME280;15572;48.810;9.148;2023-12-20T23:37:39;97953.81;;;5.18;100.00
28312;BME280;15572;48.810;9.148;2023-12-20T23:42:36;97933.69;;;5.22;100.00
28312;BME280;15572;48.810;9.148;2023-12-20T23:47:32;97915.56;;;5.24;100.00
28312;BME280;15572;48.810;9.148;2023-12-20T23:52:29;97901.31;;;5.23;100.00
28312;BME280;15572;48.810;9.148;2023-12-20T23:57:26;97892.91;;;5.26;100.00
